createdAt,value
2023-05-01T00:02:22.406Z,99682.30
2023-05-01T00:04:48.931Z,99689.00
2023-05-01T00:07:30.441Z,99691.18
2023-05-01T00:08:40.426Z,99692.12
2023-05-01T00:11:05.420Z,99686.53
2023-05-01T00:13:30.064Z,99677.45
2023-05-01T00:15:54.301Z,99674.16
2023-05-01T00:18:20.953Z,99683.63
2023-05-01T00:20:46.540Z,99693.98
2023-05-01T00:23:12.448Z,99688.36
2023-05-01T00:25:37.246Z,99699.83
2023-05-01T00:28:03.675Z,99702.52
2023-05-01T00:30:28.863Z,99700.79
2023-05-01T00:32:54.437Z,99701.19
2023-05-01T00:34:05.043Z,99702.63
2023-05-01T00:36:50.130Z,99701.23
2023-05-01T00:37:59.956Z,99700.83
2023-05-01T00:40:24.893Z,99701.17
2023-05-01T00:41:35.163Z,99701.75
2023-05-01T00:44:00.714Z,99696.92
2023-05-01T00:46:26.411Z,99695.59
2023-05-01T00:48:53.622Z,99693.53
2023-05-01T00:50:04.340Z,99699.48
2023-05-01T00:52:29.521Z,99695.01
2023-05-01T00:53:41.961Z,99700.45
2023-05-01T00:56:33.346Z,99705.77
2023-05-01T00:57:42.734Z,99709.72
2023-05-01T00:58:52.971Z,99714.82
2023-05-01T01:01:17.032Z,99704.31
2023-05-01T01:03:43.632Z,99707.32
2023-05-01T01:06:25.071Z,99716.70
2023-05-01T01:09:23.827Z,99721.67
2023-05-01T01:13:36.144Z,99736.55
2023-05-01T01:15:06.706Z,99737.80
2023-05-01T01:18:11.723Z,99738.64
2023-05-01T01:19:30.271Z,99744.39
2023-05-01T01:22:13.885Z,99740.83
2023-05-01T01:25:40.459Z,99736.31
2023-05-01T01:28:38.253Z,99742.66
2023-05-01T01:31:20.883Z,99737.41
2023-05-01T01:35:37.064Z,99745.86
2023-05-01T01:40:06.265Z,99733.44
2023-05-01T01:45:27.951Z,99734.39
2023-05-01T01:47:55.748Z,99736.11
2023-05-01T01:50:27.955Z,99734.05
2023-05-01T01:53:00.204Z,99734.73
2023-05-01T01:55:32.236Z,99738.91
2023-05-01T01:57:59.302Z,99734.92
2023-05-01T01:59:09.665Z,99739.98
2023-05-01T02:01:39.952Z,99742.31
2023-05-01T02:04:08.715Z,99742.31
2023-05-01T02:06:40.051Z,99741.86
2023-05-01T02:09:10.065Z,99746.88
2023-05-01T02:11:39.677Z,99756.42
2023-05-01T02:14:08.924Z,99758.03
2023-05-01T02:16:36.998Z,99753.73
2023-05-01T02:19:23.914Z,99748.59
2023-05-01T02:20:33.964Z,99754.24
2023-05-01T02:23:00.778Z,99751.40
2023-05-01T02:25:30.563Z,99761.29
2023-05-01T02:26:43.749Z,99769.16
2023-05-01T02:29:18.574Z,99767.50
2023-05-01T02:31:44.201Z,99765.78
2023-05-01T02:34:09.873Z,99776.02
2023-05-01T02:36:35.453Z,99774.52
2023-05-01T02:39:05.356Z,99777.32
2023-05-01T02:41:35.064Z,99767.77
2023-05-01T02:44:05.924Z,99775.06
2023-05-01T02:46:38.315Z,99772.15
2023-05-01T02:49:12.948Z,99775.29
2023-05-01T02:50:27.942Z,99791.45
2023-05-01T02:51:46.039Z,99789.55
2023-05-01T02:54:45.263Z,99787.09
2023-05-01T02:55:55.497Z,99791.05
2023-05-01T02:58:24.492Z,99789.34
2023-05-01T02:59:34.528Z,99794.16
2023-05-01T03:00:51.707Z,99798.23
2023-05-01T03:03:16.740Z,99795.99
2023-05-01T03:05:42.835Z,99797.38
2023-05-01T03:08:08.547Z,99803.28
2023-05-01T03:10:33.262Z,99806.41
2023-05-01T03:11:44.648Z,99809.97
2023-05-01T03:12:53.832Z,99815.33
2023-05-01T03:15:19.179Z,99811.98
2023-05-01T03:16:28.987Z,99817.80
2023-05-01T03:18:54.001Z,99801.98
2023-05-01T03:20:06.095Z,99815.20
2023-05-01T03:21:15.690Z,99815.97
2023-05-01T03:22:25.372Z,99812.60
2023-05-01T03:23:34.157Z,99817.34
2023-05-01T03:24:44.840Z,99824.30
2023-05-01T03:27:10.442Z,99815.55
2023-05-01T03:29:39.737Z,99827.03
2023-05-01T03:32:07.646Z,99815.44
2023-05-01T03:34:34.641Z,99815.52
2023-05-01T03:35:44.308Z,99819.55
2023-05-01T03:38:09.451Z,99814.12
2023-05-01T03:39:26.867Z,99818.62
2023-05-01T03:42:44.864Z,99813.91
2023-05-01T03:45:11.774Z,99816.79
2023-05-01T03:47:59.013Z,99818.09
2023-05-01T03:50:23.853Z,99818.44
2023-05-01T03:52:53.825Z,99819.70
2023-05-01T03:54:03.473Z,99827.94
2023-05-01T03:56:31.431Z,99819.30
2023-05-01T03:59:16.904Z,99835.01
2023-05-01T04:27:50.055Z,99855.35
2023-05-01T04:30:17.072Z,99861.52
2023-05-01T04:31:26.147Z,99868.48
2023-05-01T04:33:52.316Z,99864.81
2023-05-01T04:36:18.003Z,99863.02
2023-05-01T04:38:44.029Z,99864.72
2023-05-01T04:41:11.511Z,99874.75
2023-05-01T04:42:21.186Z,99874.59
2023-05-01T04:43:30.678Z,99873.45
2023-05-01T04:45:55.950Z,99869.70
2023-05-01T04:47:06.241Z,99874.13
2023-05-01T04:48:16.484Z,99874.86
2023-05-01T04:49:26.083Z,99877.58
2023-05-01T04:51:50.862Z,99876.17
2023-05-01T04:54:15.312Z,99877.63
2023-05-01T04:55:25.523Z,99884.03
2023-05-01T04:58:03.115Z,99877.77
2023-05-01T05:00:28.185Z,99888.59
2023-05-01T05:02:54.170Z,99884.98
2023-05-01T05:05:19.273Z,99890.95
2023-05-01T05:07:47.564Z,99892.19
2023-05-01T05:10:32.789Z,99899.38
2023-05-01T05:13:41.658Z,99905.55
2023-05-01T05:16:07.708Z,99899.39
2023-05-01T05:18:31.915Z,99901.95
2023-05-01T05:20:56.813Z,99915.38
2023-05-01T05:22:06.953Z,99916.59
2023-05-01T05:24:32.467Z,99914.94
2023-05-01T05:25:41.969Z,99922.52
2023-05-01T05:26:52.063Z,99919.80
2023-05-01T05:28:01.295Z,99918.34
2023-05-01T05:29:10.587Z,99914.69
2023-05-01T05:31:35.258Z,99918.38
2023-05-01T05:32:45.133Z,99934.77
2023-05-01T05:35:09.036Z,99932.89
2023-05-01T05:37:33.843Z,99944.30
2023-05-01T05:39:58.832Z,99942.31
2023-05-01T05:42:23.271Z,99947.72
2023-05-01T05:44:47.641Z,99947.87
2023-05-01T05:47:14.175Z,99964.11
2023-05-01T05:49:38.339Z,99946.27
2023-05-01T05:50:50.114Z,99954.61
2023-05-01T05:53:16.760Z,99941.47
2023-05-01T05:54:26.627Z,99949.88
2023-05-01T05:55:35.627Z,99951.86
2023-05-01T05:56:48.092Z,99949.00
2023-05-01T05:58:01.974Z,99954.27
2023-05-01T05:59:11.257Z,99959.83
2023-05-01T06:00:20.381Z,99961.84
2023-05-01T06:02:45.088Z,99973.36
2023-05-01T06:03:54.773Z,99970.27
2023-05-01T06:06:22.755Z,99978.06
2023-05-01T06:07:33.220Z,99988.61
2023-05-01T06:10:03.549Z,99983.91
2023-05-01T06:12:29.459Z,99978.70
2023-05-01T06:13:38.593Z,99984.20
2023-05-01T06:16:04.623Z,99996.13
2023-05-01T06:18:30.431Z,100003.22
2023-05-01T06:19:40.100Z,100001.02
2023-05-01T06:22:26.536Z,100009.73
2023-05-01T06:23:42.690Z,99996.28
2023-05-01T06:25:12.790Z,100020.94
2023-05-01T06:27:38.356Z,99999.58
2023-05-01T06:30:02.779Z,100014.40
2023-05-01T06:32:28.716Z,100008.88
2023-05-01T06:33:41.244Z,100015.28
2023-05-01T06:34:53.696Z,100009.17
2023-05-01T06:37:17.723Z,100011.58
2023-05-01T06:39:43.792Z,100030.10
2023-05-01T06:42:12.188Z,100009.67
2023-05-01T06:44:36.341Z,100017.43
2023-05-01T06:47:01.133Z,100026.98
2023-05-01T06:49:25.258Z,100013.30
2023-05-01T06:51:49.820Z,100018.86
2023-05-01T06:54:22.708Z,100012.96
2023-05-01T06:56:48.886Z,100027.37
2023-05-01T06:59:12.763Z,100016.08
2023-05-01T07:01:38.990Z,100028.52
2023-05-01T07:04:03.568Z,100015.98
2023-05-01T07:05:13.951Z,100021.95
2023-05-01T07:06:24.047Z,100038.20
2023-05-01T07:08:49.913Z,100015.82
2023-05-01T07:11:13.380Z,100031.95
2023-05-01T07:13:38.997Z,100045.52
2023-05-01T07:14:48.511Z,100046.36
2023-05-01T07:17:12.887Z,100041.23
2023-05-01T07:18:22.004Z,100046.20
2023-05-01T07:19:31.106Z,100053.89
2023-05-01T07:20:42.899Z,100060.02
2023-05-01T07:23:09.600Z,100049.88
2023-05-01T07:25:33.958Z,100057.37
2023-05-01T07:28:19.011Z,100067.08
2023-05-01T07:30:42.525Z,100072.84
2023-05-01T07:31:52.226Z,100064.97
2023-05-01T07:33:01.668Z,100075.44
2023-05-01T07:35:28.271Z,100072.11
2023-05-01T07:36:39.027Z,100071.95
2023-05-01T07:39:10.669Z,100071.55
2023-05-01T07:41:36.008Z,100068.94
2023-05-01T07:44:00.960Z,100084.02
2023-05-01T07:45:10.640Z,100076.95
2023-05-01T07:47:35.957Z,100076.70
2023-05-01T07:50:01.547Z,100071.39
2023-05-01T07:51:11.130Z,100077.19
2023-05-01T07:52:21.314Z,100076.77
2023-05-01T07:53:30.618Z,100087.11
2023-05-01T07:56:07.116Z,100081.48
2023-05-01T07:57:16.662Z,100079.41
2023-05-01T07:58:26.551Z,100077.83
2023-05-01T07:59:35.466Z,100108.86
2023-05-01T08:02:01.233Z,100090.84
2023-05-01T08:04:27.474Z,100090.38
2023-05-01T08:05:38.317Z,100110.69
2023-05-01T08:06:47.164Z,100107.03
2023-05-01T08:07:56.378Z,100099.53
2023-05-01T08:10:21.378Z,100091.56
2023-05-01T08:11:33.414Z,100103.22
2023-05-01T08:12:43.278Z,100089.33
2023-05-01T08:13:59.172Z,100093.22
2023-05-01T08:16:24.447Z,100110.41
2023-05-01T08:18:51.205Z,100107.39
2023-05-01T08:21:16.228Z,100113.86
2023-05-01T08:22:24.941Z,100124.84
2023-05-01T08:24:51.377Z,100121.97
2023-05-01T08:27:35.163Z,100112.02
2023-05-01T08:28:43.855Z,100118.28
2023-05-01T08:29:52.957Z,100099.27
2023-05-01T08:31:04.871Z,100114.79
2023-05-01T08:33:31.921Z,100117.61
2023-05-01T08:35:56.632Z,100103.29
2023-05-01T08:38:21.986Z,100112.98
2023-05-01T08:39:32.614Z,100135.73
2023-05-01T08:40:43.444Z,100126.06
2023-05-01T08:41:53.331Z,100123.16
2023-05-01T08:44:19.322Z,100119.05
2023-05-01T08:45:31.694Z,100114.38
2023-05-01T08:48:12.648Z,100126.38
2023-05-01T08:49:24.713Z,100120.11
2023-05-01T08:51:57.361Z,100110.16
2023-05-01T08:54:24.075Z,100102.28
2023-05-01T08:56:53.009Z,100131.71
2023-05-01T08:59:24.569Z,100129.48
2023-05-01T09:01:52.836Z,100133.83
2023-05-01T09:04:21.063Z,100134.48
2023-05-01T09:06:49.433Z,100135.89
2023-05-01T09:09:16.879Z,100144.71
2023-05-01T09:11:44.467Z,100143.84
2023-05-01T09:14:17.639Z,100144.30
2023-05-01T09:16:43.901Z,100154.99
2023-05-01T09:19:11.214Z,100149.09
2023-05-01T09:21:42.816Z,100143.00
2023-05-01T09:24:08.302Z,100162.55
2023-05-01T09:26:35.083Z,100145.09
2023-05-01T09:29:05.644Z,100140.49
2023-05-01T09:31:49.824Z,100151.23
2023-05-01T09:34:25.587Z,100149.98
2023-05-01T09:37:14.721Z,100164.19
2023-05-01T09:39:42.052Z,100158.39
2023-05-01T09:42:27.865Z,100165.60
2023-05-01T09:44:54.213Z,100159.48
2023-05-01T09:47:27.061Z,100152.48
2023-05-01T09:49:53.126Z,100156.51
2023-05-01T09:52:19.228Z,100163.30
2023-05-01T09:55:17.245Z,100163.30
2023-05-01T09:56:28.650Z,100169.95
2023-05-01T09:58:55.923Z,100167.45
2023-05-01T10:01:45.491Z,100169.00
2023-05-01T10:04:11.340Z,100176.77
2023-05-01T10:05:20.408Z,100180.38
2023-05-01T10:07:59.544Z,100175.10
2023-05-01T10:10:29.271Z,100177.07
2023-05-01T10:13:15.155Z,100189.28
2023-05-01T10:15:41.670Z,100184.34
2023-05-01T10:18:09.827Z,100180.79
2023-05-01T10:19:19.581Z,100171.73
2023-05-01T10:21:44.334Z,100174.55
2023-05-01T10:24:10.544Z,100174.20
2023-05-01T10:26:37.143Z,100170.86
2023-05-01T10:29:04.193Z,100164.00
2023-05-01T10:31:32.475Z,100188.44
2023-05-01T10:34:02.258Z,100186.20
2023-05-01T10:36:42.460Z,100195.77
2023-05-01T10:39:29.909Z,100184.39
2023-05-01T10:42:17.272Z,100181.22
2023-05-01T10:44:46.212Z,100183.91
2023-05-01T10:46:26.511Z,100198.85
2023-05-01T10:48:57.499Z,100206.44
2023-05-01T10:52:03.668Z,100190.55
2023-05-01T10:53:16.369Z,100197.34
2023-05-01T10:55:50.180Z,100192.20
2023-05-01T10:57:02.871Z,100197.75
2023-05-01T11:00:03.561Z,100209.62
2023-05-01T11:01:42.210Z,100206.20
2023-05-01T11:04:23.836Z,100198.86
2023-05-01T11:07:17.998Z,100198.26
2023-05-01T11:08:36.836Z,100208.50
2023-05-01T11:09:51.079Z,100209.95
2023-05-01T11:12:51.873Z,100194.36
2023-05-01T11:15:31.996Z,100191.15
2023-05-01T11:18:02.887Z,100198.06
2023-05-01T11:20:47.854Z,100206.13
2023-05-01T11:23:16.463Z,100217.80
2023-05-01T11:24:33.739Z,100220.98
2023-05-01T11:26:59.768Z,100216.54
2023-05-01T11:29:27.051Z,100199.19
2023-05-01T11:31:57.239Z,100187.65
2023-05-01T11:33:10.446Z,100189.75
2023-05-01T11:35:38.860Z,100200.03
2023-05-01T11:36:53.400Z,100221.52
2023-05-01T11:39:43.000Z,100214.02
2023-05-01T11:40:59.666Z,100208.14
2023-05-01T11:43:27.218Z,100205.66
2023-05-01T11:44:37.189Z,100208.63
2023-05-01T11:47:26.499Z,100208.27
2023-05-01T11:49:53.078Z,100203.42
2023-05-01T11:52:21.579Z,100204.81
2023-05-01T11:53:32.138Z,100210.47
2023-05-01T11:54:49.163Z,100209.59
2023-05-01T11:57:15.274Z,100205.72
2023-05-01T11:58:32.765Z,100214.52
2023-05-01T12:01:00.578Z,100197.59
2023-05-01T12:03:34.189Z,100211.73
2023-05-01T12:05:58.254Z,100217.14
2023-05-01T12:08:26.717Z,100220.03
2023-05-01T12:10:55.385Z,100211.50
2023-05-01T12:13:22.642Z,100213.08
2023-05-01T12:14:31.753Z,100221.89
2023-05-01T12:17:04.179Z,100205.52
2023-05-01T12:18:14.589Z,100207.76
2023-05-01T12:19:24.076Z,100211.31
2023-05-01T12:20:42.203Z,100224.60
2023-05-01T12:23:37.867Z,100216.34
2023-05-01T12:26:22.709Z,100215.12
2023-05-01T12:29:01.036Z,100218.95
2023-05-01T12:31:27.279Z,100214.84
2023-05-01T12:35:16.766Z,100223.14
2023-05-01T12:36:31.458Z,100228.66
2023-05-01T12:37:41.634Z,100235.72
2023-05-01T12:39:09.173Z,100229.64
2023-05-01T12:41:44.902Z,100222.83
2023-05-01T12:44:22.016Z,100224.59
2023-05-01T12:46:58.333Z,100230.01
2023-05-01T12:48:16.664Z,100236.73
2023-05-01T12:50:42.718Z,100232.65
2023-05-01T12:53:10.957Z,100245.20
2023-05-01T12:57:16.070Z,100234.78
2023-05-01T12:59:56.219Z,100232.64
2023-05-01T13:02:26.031Z,100228.91
2023-05-01T13:03:38.517Z,100228.11
2023-05-01T13:04:49.988Z,100229.28
2023-05-01T13:06:05.041Z,100229.50
2023-05-01T13:08:37.215Z,100229.19
2023-05-01T13:09:59.347Z,100234.28
2023-05-01T13:11:14.909Z,100245.30
2023-05-01T13:13:42.668Z,100222.16
2023-05-01T13:16:12.824Z,100241.73
2023-05-01T13:17:32.870Z,100247.11
2023-05-01T13:18:47.681Z,100239.88
2023-05-01T13:20:02.512Z,100244.08
2023-05-01T13:21:14.258Z,100251.27
2023-05-01T13:23:58.129Z,100243.55
2023-05-01T13:26:36.124Z,100238.05
2023-05-01T13:29:07.681Z,100246.73
2023-05-01T13:31:44.280Z,100251.67
2023-05-01T13:34:10.804Z,100246.45
2023-05-01T13:36:40.976Z,100251.73
2023-05-01T13:39:05.274Z,100250.42
2023-05-01T13:41:35.064Z,100249.63
2023-05-01T13:42:44.773Z,100247.71
2023-05-01T13:45:22.079Z,100253.42
2023-05-01T13:47:48.887Z,100247.16
2023-05-01T13:50:17.694Z,100258.45
2023-05-01T13:52:44.031Z,100261.81
2023-05-01T13:55:13.142Z,100262.89
2023-05-01T13:56:22.312Z,100255.60
2023-05-01T13:57:31.517Z,100257.14
2023-05-01T13:59:55.934Z,100254.25
2023-05-01T14:02:34.341Z,100256.45
2023-05-01T14:03:44.069Z,100267.84
2023-05-01T14:06:16.405Z,100265.17
2023-05-01T14:08:42.667Z,100257.75
2023-05-01T14:11:13.475Z,100261.55
2023-05-01T14:13:45.292Z,100262.60
2023-05-01T14:16:24.682Z,100264.98
2023-05-01T14:18:55.884Z,100268.02
2023-05-01T14:21:23.369Z,100276.19
2023-05-01T14:24:04.948Z,100271.62
2023-05-01T14:26:44.087Z,100280.91
2023-05-01T14:30:42.225Z,100278.34
2023-05-01T14:33:11.905Z,100281.89
2023-05-01T14:34:21.103Z,100289.83
2023-05-01T14:36:45.709Z,100288.01
2023-05-01T14:39:16.718Z,100278.11
2023-05-01T14:41:42.546Z,100294.59
2023-05-01T14:44:17.553Z,100293.27
2023-05-01T14:46:49.726Z,100301.45
2023-05-01T14:50:37.623Z,100289.69
2023-05-01T14:53:01.490Z,100286.23
2023-05-01T14:55:30.204Z,100301.14
2023-05-01T14:57:58.130Z,100296.78
2023-05-01T15:00:26.221Z,100302.02
2023-05-01T15:02:52.162Z,100296.98
2023-05-01T15:05:17.192Z,100300.29
2023-05-01T15:07:42.676Z,100304.45
2023-05-01T15:08:51.580Z,100315.94
2023-05-01T15:10:00.670Z,100313.38
2023-05-01T15:11:11.590Z,100309.22
2023-05-01T15:13:36.886Z,100308.88
2023-05-01T15:14:46.613Z,100313.92
2023-05-01T15:15:56.055Z,100302.53
2023-05-01T15:17:06.612Z,100315.09
2023-05-01T15:19:30.269Z,100315.23
2023-05-01T15:21:54.223Z,100313.70
2023-05-01T15:24:22.717Z,100317.48
2023-05-01T15:26:47.515Z,100316.08
2023-05-01T15:29:12.087Z,100322.10
2023-05-01T15:31:37.302Z,100322.07
2023-05-01T15:32:46.894Z,100325.48
2023-05-01T15:33:55.596Z,100328.39
2023-05-01T15:36:20.137Z,100321.64
2023-05-01T15:38:47.268Z,100334.33
2023-05-01T15:41:10.662Z,100334.20
2023-05-01T15:43:36.455Z,100333.87
2023-05-01T15:46:00.748Z,100332.75
2023-05-01T15:48:25.849Z,100326.59
2023-05-01T15:49:35.153Z,100347.35
2023-05-01T15:51:58.915Z,100344.20
2023-05-01T15:54:24.445Z,100335.27
2023-05-01T15:56:49.399Z,100341.40
2023-05-01T15:59:13.800Z,100338.48
2023-05-01T16:01:38.744Z,100348.34
2023-05-01T16:04:04.087Z,100347.15
2023-05-01T16:06:33.417Z,100351.45
2023-05-01T16:09:04.540Z,100350.91
2023-05-01T16:11:30.669Z,100360.30
2023-05-01T16:13:55.411Z,100358.45
2023-05-01T16:16:26.662Z,100361.09
2023-05-01T16:18:59.380Z,100376.46
2023-05-01T16:21:28.325Z,100369.86
2023-05-01T16:24:18.166Z,100378.05
2023-05-01T16:26:43.760Z,100381.50
2023-05-01T16:27:52.744Z,100385.06
2023-05-01T16:30:22.706Z,100381.73
2023-05-01T16:32:56.704Z,100373.63
2023-05-01T16:35:27.357Z,100391.38
2023-05-01T16:37:55.932Z,100398.96
2023-05-01T16:40:21.283Z,100388.05
2023-05-01T16:42:53.005Z,100394.47
2023-05-01T16:45:18.041Z,100401.25
2023-05-01T16:47:44.534Z,100407.52
2023-05-01T16:50:11.689Z,100404.55
2023-05-01T16:52:35.921Z,100408.84
2023-05-01T16:53:47.198Z,100422.99
2023-05-01T16:54:56.961Z,100424.49
2023-05-01T16:56:09.436Z,100424.49
2023-05-01T16:58:33.290Z,100422.77
2023-05-01T17:00:57.363Z,100425.37
2023-05-01T17:03:24.508Z,100429.31
2023-05-01T17:05:50.385Z,100431.77
2023-05-01T17:08:14.179Z,100437.19
2023-05-01T17:10:38.639Z,100443.95
2023-05-01T17:13:04.860Z,100438.30
2023-05-01T17:15:28.424Z,100441.75
2023-05-01T17:16:39.709Z,100451.34
2023-05-01T17:19:10.119Z,100445.67
2023-05-01T17:21:35.289Z,100449.36
2023-05-01T17:24:00.523Z,100455.64
2023-05-01T17:26:25.985Z,100463.38
2023-05-01T17:28:51.154Z,100463.63
2023-05-01T17:30:00.465Z,100466.94
2023-05-01T17:32:35.908Z,100474.45
2023-05-01T17:33:38.474Z,100475.30
2023-05-01T17:34:47.937Z,100470.02
2023-05-01T17:37:20.676Z,100473.56
2023-05-01T17:39:44.515Z,100482.91
2023-05-01T17:42:10.462Z,100485.86
2023-05-01T17:44:36.075Z,100484.37
2023-05-01T17:47:00.532Z,100488.43
2023-05-01T17:49:25.082Z,100484.87
2023-05-01T17:51:49.024Z,100488.43
2023-05-01T17:52:59.486Z,100489.27
2023-05-01T17:54:08.606Z,100505.22
2023-05-01T17:55:18.671Z,100502.00
2023-05-01T17:57:43.755Z,100499.30
2023-05-01T17:58:53.566Z,100504.19
2023-05-01T18:00:04.656Z,100511.78
2023-05-01T18:01:15.366Z,100508.74
2023-05-01T18:03:40.147Z,100500.20
2023-05-01T18:06:05.661Z,100511.89
2023-05-01T18:07:14.436Z,100516.84
2023-05-01T18:09:41.107Z,100514.02
2023-05-01T18:12:06.003Z,100524.83
2023-05-01T18:14:31.521Z,100520.70
2023-05-01T18:16:56.415Z,100535.33
2023-05-01T18:19:20.268Z,100528.88
2023-05-01T18:21:44.487Z,100535.05
2023-05-01T18:22:54.950Z,100536.45
2023-05-01T18:25:19.977Z,100539.44
2023-05-01T18:27:46.681Z,100547.97
2023-05-01T18:30:10.970Z,100549.79
2023-05-01T18:31:21.574Z,100551.94
2023-05-01T18:32:46.136Z,100555.89
2023-05-01T18:34:57.326Z,100552.16
2023-05-01T18:37:23.093Z,100557.45
2023-05-01T18:39:46.454Z,100564.58
2023-05-01T18:42:10.159Z,100559.79
2023-05-01T18:44:34.110Z,100567.66
2023-05-01T18:46:58.833Z,100568.48
2023-05-01T18:49:24.929Z,100572.03
2023-05-01T18:51:51.301Z,100574.55
2023-05-01T18:54:17.671Z,100575.64
2023-05-01T18:56:41.434Z,100577.50
2023-05-01T18:59:05.564Z,100582.05
2023-05-01T19:01:32.892Z,100572.27
2023-05-01T19:04:00.640Z,100576.23
2023-05-01T19:06:28.939Z,100582.64
2023-05-01T19:08:54.403Z,100583.41
2023-05-01T19:11:19.499Z,100581.83
2023-05-01T19:13:47.177Z,100588.92
2023-05-01T19:16:13.510Z,100591.62
2023-05-01T19:18:39.725Z,100599.82
2023-05-01T19:21:04.875Z,100589.80
2023-05-01T19:23:31.361Z,100590.22
2023-05-01T19:25:55.025Z,100594.45
2023-05-01T19:28:19.460Z,100594.77
2023-05-01T19:30:43.566Z,100591.30
2023-05-01T19:33:11.891Z,100593.46
2023-05-01T19:35:55.734Z,100587.87
2023-05-01T19:38:20.113Z,100599.08
2023-05-01T19:40:45.260Z,100602.52
2023-05-01T19:43:13.566Z,100611.16
2023-05-01T19:46:45.665Z,100604.70
2023-05-01T19:49:10.945Z,100608.14
2023-05-01T19:51:36.040Z,100606.31
2023-05-01T19:54:01.313Z,100600.92
2023-05-01T19:56:27.846Z,100606.42
2023-05-01T19:58:54.558Z,100613.08
2023-05-01T20:01:21.437Z,100615.89
2023-05-01T20:02:30.724Z,100614.90
2023-05-01T20:04:54.972Z,100614.62
2023-05-01T20:06:05.785Z,100613.61
2023-05-01T20:07:14.590Z,100619.77
2023-05-01T20:09:39.400Z,100611.92
2023-05-01T20:10:49.268Z,100612.75
2023-05-01T20:13:13.864Z,100613.93
2023-05-01T20:15:39.276Z,100614.92
2023-05-01T20:16:52.535Z,100624.72
2023-05-01T20:19:17.828Z,100623.65
2023-05-01T20:21:41.556Z,100625.38
2023-05-01T20:22:52.830Z,100628.59
2023-05-01T20:24:01.924Z,100624.94
2023-05-01T20:26:27.174Z,100627.63
2023-05-01T20:28:53.864Z,100614.73
2023-05-01T20:30:02.786Z,100627.20
2023-05-01T20:32:27.791Z,100623.31
2023-05-01T20:34:55.025Z,100628.05
2023-05-01T20:36:06.728Z,100626.86
2023-05-01T20:37:16.436Z,100627.37
2023-05-01T20:39:41.907Z,100623.65
2023-05-01T20:42:07.180Z,100625.45
2023-05-01T20:43:16.326Z,100630.39
2023-05-01T20:44:26.971Z,100630.17
2023-05-01T20:46:52.439Z,100628.89
2023-05-01T20:49:17.163Z,100627.93
2023-05-01T20:50:26.753Z,100640.00
2023-05-01T20:51:36.123Z,100642.58
2023-05-01T20:54:00.466Z,100635.94
2023-05-01T20:55:11.649Z,100643.77
2023-05-01T20:56:20.762Z,100638.30
2023-05-01T20:57:29.719Z,100636.56
2023-05-01T20:59:57.289Z,100634.20
2023-05-01T21:01:07.365Z,100634.82
2023-05-01T21:03:32.961Z,100646.16
2023-05-01T21:04:43.699Z,100643.02
2023-05-01T21:05:53.115Z,100643.76
2023-05-01T21:08:16.757Z,100643.87
2023-05-01T21:10:41.086Z,100652.08
2023-05-01T21:11:50.271Z,100655.42
2023-05-01T21:14:15.898Z,100654.55
2023-05-01T21:15:27.500Z,100652.38
2023-05-01T21:16:37.879Z,100662.16
2023-05-01T21:17:46.665Z,100653.90
2023-05-01T21:20:15.522Z,100660.94
2023-05-01T21:21:26.454Z,100662.52
2023-05-01T21:23:51.455Z,100664.14
2023-05-01T21:25:00.077Z,100676.52
2023-05-01T21:27:26.945Z,100672.94
2023-05-01T21:29:59.137Z,100668.55
2023-05-01T21:33:50.425Z,100680.67
2023-05-01T21:36:18.881Z,100674.64
2023-05-01T21:37:28.966Z,100682.77
2023-05-01T21:38:39.684Z,100685.56
2023-05-01T21:39:49.748Z,100686.36
2023-05-01T21:42:15.541Z,100683.28
2023-05-01T21:43:25.083Z,100686.78
2023-05-01T21:44:36.063Z,100694.86
2023-05-01T21:45:47.078Z,100689.58
2023-05-01T21:48:15.974Z,100696.86
2023-05-01T21:49:31.741Z,100696.59
2023-05-01T21:53:16.849Z,100701.36
2023-05-01T21:55:45.985Z,100697.81
2023-05-01T21:58:24.267Z,100700.81
2023-05-01T22:00:51.743Z,100713.39
2023-05-01T22:03:24.373Z,100716.19
2023-05-01T22:04:34.335Z,100723.25
2023-05-01T22:27:51.976Z,100728.69
2023-05-01T22:29:01.739Z,100723.25
2023-05-01T22:31:27.530Z,100730.27
2023-05-01T22:33:52.971Z,100731.12
2023-05-01T22:36:18.760Z,100732.37
2023-05-01T22:38:43.441Z,100734.02
2023-05-01T22:41:09.978Z,100729.79
2023-05-01T22:43:34.783Z,100729.11
2023-05-01T22:46:01.013Z,100736.53
2023-05-01T22:48:26.405Z,100734.80
2023-05-01T22:49:37.840Z,100740.06
2023-05-01T22:52:03.269Z,100740.18
2023-05-01T22:53:12.201Z,100745.28
2023-05-01T22:54:22.005Z,100742.75
2023-05-01T22:55:31.240Z,100738.26
2023-05-01T22:57:56.326Z,100739.11
2023-05-01T22:59:07.219Z,100740.83
2023-05-01T23:01:32.464Z,100743.54
2023-05-01T23:03:58.134Z,100741.41
2023-05-01T23:06:24.046Z,100743.52
2023-05-01T23:08:54.266Z,100738.60
2023-05-01T23:11:20.636Z,100742.14
2023-05-01T23:13:48.314Z,100745.72
2023-05-01T23:16:18.379Z,100748.41
2023-05-01T23:18:46.481Z,100750.15
2023-05-01T23:21:19.402Z,100749.56
2023-05-01T23:23:47.411Z,100748.77
2023-05-01T23:24:57.200Z,100755.69
2023-05-01T23:27:22.509Z,100748.02
2023-05-01T23:28:32.687Z,100758.58
2023-05-01T23:31:01.955Z,100744.18
2023-05-01T23:33:33.949Z,100745.63
2023-05-01T23:34:48.259Z,100756.84
2023-05-01T23:35:58.803Z,100753.30
2023-05-01T23:37:08.111Z,100752.16
2023-05-01T23:38:19.209Z,100755.70
2023-05-01T23:40:46.990Z,100749.32
2023-05-01T23:43:12.610Z,100748.82
2023-05-01T23:45:38.950Z,100750.56
2023-05-01T23:46:48.257Z,100759.59
2023-05-01T23:49:14.452Z,100758.45
2023-05-01T23:50:24.731Z,100755.43
2023-05-01T23:51:33.643Z,100763.41
2023-05-01T23:52:44.452Z,100760.61
2023-05-01T23:53:53.904Z,100760.61
2023-05-01T23:55:03.127Z,100759.59
2023-05-01T23:56:12.469Z,100755.92
2023-05-01T23:57:23.215Z,100756.81
2023-05-01T23:58:31.547Z,100759.39
2023-05-01T23:59:42.158Z,100757.56
